createdAt,value
2023-03-05T00:01:29.366Z,-3.98
2023-03-05T00:03:57.821Z,-4.06
2023-03-05T00:06:28.024Z,-4.00
2023-03-05T00:08:58.429Z,-4.03
2023-03-05T00:11:30.192Z,-3.90
2023-03-05T00:13:59.511Z,-3.99
2023-03-05T00:16:28.294Z,-4.01
2023-03-05T00:18:57.814Z,-4.20
2023-03-05T00:21:35.316Z,-4.23
2023-03-05T00:24:15.479Z,-4.15
2023-03-05T00:26:43.942Z,-4.19
2023-03-05T00:29:22.006Z,-4.19
2023-03-05T00:31:50.050Z,-4.29
2023-03-05T00:34:19.260Z,-4.37
2023-03-05T00:36:50.369Z,-4.34
2023-03-05T00:39:19.918Z,-4.45
2023-03-05T00:41:48.501Z,-4.54
2023-03-05T00:44:16.238Z,-4.50
2023-03-05T00:46:44.253Z,-4.51
2023-03-05T00:49:12.122Z,-4.60
2023-03-05T00:51:40.460Z,-4.60
2023-03-05T00:54:08.087Z,-4.65
2023-03-05T00:56:36.152Z,-4.73
2023-03-05T00:59:04.466Z,-4.72
2023-03-05T01:01:32.481Z,-4.68
2023-03-05T01:04:01.272Z,-4.69
2023-03-05T01:06:29.642Z,-4.67
2023-03-05T01:08:57.352Z,-4.72
2023-03-05T01:11:25.772Z,-4.76
2023-03-05T01:13:53.933Z,-4.69
2023-03-05T01:16:22.017Z,-4.57
2023-03-05T01:18:49.748Z,-4.37
2023-03-05T01:21:17.751Z,-4.42
2023-03-05T01:23:45.402Z,-4.47
2023-03-05T01:26:13.321Z,-4.56
2023-03-05T01:28:41.574Z,-4.57
2023-03-05T01:31:10.759Z,-4.54
2023-03-05T01:33:39.702Z,-4.51
2023-03-05T01:36:13.343Z,-4.57
2023-03-05T01:38:42.260Z,-4.61
2023-03-05T01:41:11.427Z,-4.63
2023-03-05T01:43:39.711Z,-4.55
2023-03-05T01:46:28.072Z,-4.49
2023-03-05T01:49:14.357Z,-4.41
2023-03-05T01:51:42.285Z,-4.50
2023-03-05T01:54:13.279Z,-4.46
2023-03-05T01:56:43.453Z,-4.60
2023-03-05T01:59:12.779Z,-4.51
2023-03-05T02:01:48.116Z,-4.57
2023-03-05T02:04:18.759Z,-4.60
2023-03-05T02:06:48.522Z,-4.60
2023-03-05T02:09:16.220Z,-4.66
2023-03-05T02:11:44.535Z,-4.54
2023-03-05T02:14:12.348Z,-4.63
2023-03-05T02:16:41.096Z,-4.61
2023-03-05T02:19:12.803Z,-4.53
2023-03-05T02:21:44.258Z,-4.55
2023-03-05T02:24:18.279Z,-4.58
2023-03-05T02:26:47.818Z,-4.52
2023-03-05T02:29:19.843Z,-4.54
2023-03-05T02:31:48.011Z,-4.46
2023-03-05T02:34:15.797Z,-4.48
2023-03-05T02:36:43.772Z,-4.48
2023-03-05T02:39:13.610Z,-4.43
2023-03-05T02:41:41.720Z,-4.40
2023-03-05T02:44:09.963Z,-4.39
2023-03-05T02:46:38.434Z,-4.41
2023-03-05T02:49:06.181Z,-4.40
2023-03-05T02:51:34.201Z,-4.41
2023-03-05T02:54:02.247Z,-4.37
2023-03-05T02:56:31.218Z,-4.40
2023-03-05T02:59:01.925Z,-4.45
2023-03-05T03:01:30.095Z,-4.50
2023-03-05T03:03:59.005Z,-4.53
2023-03-05T03:06:27.082Z,-4.59
2023-03-05T03:08:54.922Z,-4.63
2023-03-05T03:11:22.912Z,-4.57
2023-03-05T03:13:50.525Z,-4.57
2023-03-05T03:16:18.713Z,-4.61
2023-03-05T03:18:48.809Z,-4.62
2023-03-05T03:21:24.660Z,-4.66
2023-03-05T03:23:52.717Z,-4.63
2023-03-05T03:26:21.015Z,-4.50
2023-03-05T03:28:48.673Z,-4.59
2023-03-05T03:31:16.741Z,-4.63
2023-03-05T03:33:44.639Z,-4.64
2023-03-05T03:36:13.145Z,-4.74
2023-03-05T03:38:40.848Z,-4.72
2023-03-05T03:41:09.540Z,-4.75
2023-03-05T03:43:37.638Z,-4.78
2023-03-05T03:46:07.363Z,-4.74
2023-03-05T03:48:36.080Z,-4.74
2023-03-05T03:51:08.298Z,-4.66
2023-03-05T03:53:35.967Z,-4.60
2023-03-05T03:56:04.216Z,-4.67
2023-03-05T03:58:31.886Z,-4.66
2023-03-05T04:00:59.880Z,-4.65
2023-03-05T04:03:27.579Z,-4.64
2023-03-05T04:05:55.471Z,-4.69
2023-03-05T04:08:23.144Z,-4.66
2023-03-05T04:10:51.063Z,-4.52
2023-03-05T04:13:18.780Z,-4.53
2023-03-05T04:15:46.832Z,-4.56
2023-03-05T04:18:14.484Z,-4.51
2023-03-05T04:20:42.441Z,-4.50
2023-03-05T04:23:10.064Z,-4.51
2023-03-05T04:25:37.928Z,-4.45
2023-03-05T04:28:05.814Z,-4.40
2023-03-05T04:30:33.773Z,-4.27
2023-03-05T04:33:01.424Z,-4.22
2023-03-05T04:35:29.368Z,-4.18
2023-03-05T04:37:57.052Z,-4.19
2023-03-05T04:40:24.960Z,-4.12
2023-03-05T04:42:52.598Z,-4.03
2023-03-05T04:45:20.513Z,-3.95
2023-03-05T04:47:48.197Z,-3.91
2023-03-05T04:50:16.323Z,-3.87
2023-03-05T04:52:45.636Z,-3.76
2023-03-05T04:55:15.730Z,-3.80
2023-03-05T04:57:43.684Z,-3.75
2023-03-05T05:00:14.851Z,-3.73
2023-03-05T05:02:45.014Z,-3.76
2023-03-05T05:05:16.559Z,-3.82
2023-03-05T05:07:44.851Z,-3.81
2023-03-05T05:10:14.138Z,-3.87
2023-03-05T05:12:42.136Z,-3.85
2023-03-05T05:15:12.315Z,-3.86
2023-03-05T05:17:40.600Z,-3.93
2023-03-05T05:20:11.572Z,-3.87
2023-03-05T05:22:39.496Z,-3.85
2023-03-05T05:25:07.720Z,-3.86
2023-03-05T05:27:35.856Z,-3.88
2023-03-05T05:30:04.610Z,-3.95
2023-03-05T05:32:32.273Z,-3.78
2023-03-05T05:35:00.371Z,-3.83
2023-03-05T05:37:29.508Z,-3.55
2023-03-05T05:39:57.428Z,-3.52
2023-03-05T05:42:26.373Z,-3.54
2023-03-05T05:44:55.532Z,-3.40
2023-03-05T05:47:23.221Z,-3.35
2023-03-05T05:49:51.459Z,-3.24
2023-03-05T05:52:19.137Z,-3.08
2023-03-05T05:54:47.156Z,-2.68
2023-03-05T05:57:14.902Z,-2.61
2023-03-05T05:59:43.057Z,-1.76
2023-03-05T06:02:13.767Z,-1.59
2023-03-05T06:04:41.749Z,-1.82
2023-03-05T06:07:09.388Z,-1.29
2023-03-05T06:09:37.342Z,-0.91
2023-03-05T06:12:05.517Z,-0.50
2023-03-05T06:14:33.586Z,0.65
2023-03-05T06:17:01.381Z,1.61
2023-03-05T06:19:29.378Z,2.70
2023-03-05T06:21:57.628Z,3.36
2023-03-05T06:24:25.698Z,3.36
2023-03-05T06:26:53.369Z,3.80
2023-03-05T06:29:21.352Z,4.40
2023-03-05T06:31:49.140Z,4.71
2023-03-05T06:34:17.074Z,5.45
2023-03-05T06:36:44.795Z,5.98
2023-03-05T06:39:12.740Z,7.32
2023-03-05T06:41:40.548Z,8.61
2023-03-05T06:44:08.464Z,9.68
2023-03-05T06:46:39.820Z,9.45
2023-03-05T06:49:09.604Z,8.96
2023-03-05T06:51:39.657Z,8.61
2023-03-05T06:54:12.676Z,9.67
2023-03-05T06:56:42.964Z,9.94
2023-03-05T06:59:13.487Z,9.29
2023-03-05T07:01:41.192Z,8.65
2023-03-05T07:04:09.241Z,7.89
2023-03-05T07:06:38.755Z,6.73
2023-03-05T07:09:08.977Z,6.24
2023-03-05T07:11:36.961Z,5.66
2023-03-05T07:14:05.301Z,5.63
2023-03-05T07:16:34.217Z,5.55
2023-03-05T07:19:04.276Z,5.87
2023-03-05T07:21:34.195Z,5.89
2023-03-05T07:24:03.922Z,5.70
2023-03-05T07:26:33.565Z,6.04
2023-03-05T07:29:02.610Z,6.38
2023-03-05T07:31:33.313Z,6.39
2023-03-05T07:34:02.928Z,6.41
2023-03-05T07:36:32.315Z,6.89
2023-03-05T07:39:00.423Z,6.95
2023-03-05T07:41:28.161Z,7.10
2023-03-05T07:43:57.585Z,7.67
2023-03-05T07:46:30.675Z,8.58
2023-03-05T07:48:59.045Z,9.05
2023-03-05T07:51:27.983Z,8.91
2023-03-05T07:53:58.430Z,8.58
2023-03-05T07:56:37.893Z,7.48
2023-03-05T07:59:08.848Z,7.04
2023-03-05T08:01:37.360Z,6.82
2023-03-05T08:04:07.324Z,6.46
2023-03-05T08:06:35.067Z,6.78
2023-03-05T08:09:03.148Z,6.63
2023-03-05T08:11:30.903Z,6.23
2023-03-05T08:13:59.578Z,5.95
2023-03-05T08:16:27.952Z,5.90
2023-03-05T08:18:57.511Z,5.89
2023-03-05T08:21:33.521Z,5.75
2023-03-05T08:24:04.250Z,5.30
2023-03-05T08:26:34.166Z,5.32
2023-03-05T08:29:03.367Z,5.32
2023-03-05T08:31:31.733Z,5.52
2023-03-05T08:34:01.019Z,5.00
2023-03-05T08:36:29.963Z,4.62
2023-03-05T08:38:59.767Z,4.25
2023-03-05T08:41:27.687Z,4.41
2023-03-05T08:43:55.901Z,4.60
2023-03-05T08:46:24.080Z,4.72
2023-03-05T08:48:52.151Z,4.42
2023-03-05T08:51:23.600Z,4.00
2023-03-05T08:53:52.391Z,3.65
2023-03-05T08:56:20.669Z,3.79
2023-03-05T08:58:48.702Z,3.78
2023-03-05T09:01:16.388Z,3.80
2023-03-05T09:03:44.396Z,3.56
2023-03-05T09:06:12.922Z,3.48
2023-03-05T09:08:41.238Z,3.38
2023-03-05T09:11:11.670Z,3.53
2023-03-05T09:13:39.862Z,3.43
2023-03-05T09:16:11.366Z,3.48
2023-03-05T09:18:40.658Z,3.41
2023-03-05T09:21:10.887Z,3.22
2023-03-05T09:23:40.684Z,3.17
2023-03-05T09:26:12.060Z,3.25
2023-03-05T09:28:40.913Z,3.33
2023-03-05T09:31:10.659Z,3.07
2023-03-05T09:33:39.710Z,2.88
2023-03-05T09:36:27.442Z,2.69
2023-03-05T09:38:55.764Z,2.73
2023-03-05T09:41:30.848Z,2.96
2023-03-05T09:44:08.904Z,3.04
2023-03-05T09:46:43.881Z,3.22
2023-03-05T09:49:39.635Z,3.12
2023-03-05T09:52:39.536Z,3.22
2023-03-05T09:55:24.389Z,3.20
2023-03-05T09:57:57.205Z,3.24
2023-03-05T10:00:32.734Z,3.25
2023-03-05T10:03:05.835Z,3.16
2023-03-05T10:06:11.246Z,3.21
2023-03-05T10:09:02.813Z,3.13
2023-03-05T10:11:46.113Z,3.28
2023-03-05T10:14:20.003Z,3.48
2023-03-05T10:16:56.779Z,3.41
2023-03-05T10:19:52.444Z,3.39
2023-03-05T10:22:28.579Z,3.24
2023-03-05T10:25:26.403Z,2.93
2023-03-05T10:28:17.765Z,3.01
2023-03-05T10:30:55.953Z,2.72
2023-03-05T10:33:43.829Z,2.44
2023-03-05T10:36:24.304Z,2.30
2023-03-05T10:39:16.849Z,2.49
2023-03-05T10:42:05.878Z,2.78
2023-03-05T10:44:54.417Z,2.85
2023-03-05T10:47:54.344Z,2.99
2023-03-05T10:50:25.974Z,2.94
2023-03-05T10:53:03.567Z,3.16
2023-03-05T10:55:32.179Z,3.02
2023-03-05T10:58:01.245Z,2.58
2023-03-05T11:00:29.249Z,2.70
2023-03-05T11:03:03.466Z,2.71
2023-03-05T11:05:40.329Z,3.00
2023-03-05T11:08:32.489Z,2.86
2023-03-05T11:11:09.164Z,2.94
2023-03-05T11:13:59.772Z,2.77
2023-03-05T11:16:34.148Z,2.54
2023-03-05T11:19:24.622Z,2.74
2023-03-05T11:22:15.172Z,2.68
2023-03-05T11:24:46.660Z,2.68
2023-03-05T11:27:36.901Z,2.82
2023-03-05T11:30:24.368Z,2.86
2023-03-05T11:33:13.685Z,2.84
2023-03-05T11:35:43.843Z,2.85
2023-03-05T11:38:24.676Z,2.71
2023-03-05T11:40:55.709Z,2.77
2023-03-05T11:43:26.289Z,2.79
2023-03-05T11:46:05.520Z,2.54
2023-03-05T11:48:37.641Z,2.12
2023-03-05T11:51:18.281Z,1.57
2023-03-05T11:53:50.244Z,1.73
2023-03-05T11:56:24.410Z,1.84
2023-03-05T11:59:07.193Z,2.14
2023-03-05T12:01:42.476Z,1.90
2023-03-05T12:04:10.542Z,1.88
2023-03-05T12:07:02.073Z,1.84
2023-03-05T12:09:50.658Z,2.21
2023-03-05T12:12:44.649Z,2.26
2023-03-05T12:15:37.055Z,2.04
2023-03-05T12:18:21.065Z,2.32
2023-03-05T12:21:14.792Z,2.45
2023-03-05T12:24:03.045Z,2.52
2023-03-05T12:26:56.118Z,2.41
2023-03-05T12:29:43.591Z,2.42
2023-03-05T12:32:25.649Z,2.12
2023-03-05T12:35:00.300Z,2.20
2023-03-05T12:37:28.271Z,2.27
2023-03-05T12:40:17.352Z,2.09
2023-03-05T12:43:05.981Z,2.22
2023-03-05T12:45:39.624Z,2.11
2023-03-05T12:48:11.965Z,1.96
2023-03-05T12:50:39.924Z,1.80
2023-03-05T12:53:18.475Z,1.94
2023-03-05T12:55:48.914Z,1.72
2023-03-05T12:58:35.349Z,1.71
2023-03-05T13:01:11.835Z,1.71
2023-03-05T13:03:48.626Z,1.72
2023-03-05T13:06:34.134Z,1.79
2023-03-05T13:09:25.363Z,1.69
2023-03-05T13:11:55.272Z,1.63
2023-03-05T13:14:32.291Z,1.77
2023-03-05T13:17:00.985Z,1.84
2023-03-05T13:19:32.887Z,1.79
2023-03-05T13:22:11.577Z,2.05
2023-03-05T13:24:39.526Z,2.04
2023-03-05T13:27:31.055Z,2.03
2023-03-05T13:29:59.057Z,2.07
2023-03-05T13:32:30.796Z,1.87
2023-03-05T13:35:02.089Z,1.84
2023-03-05T13:37:34.450Z,1.89
2023-03-05T13:40:15.736Z,1.96
2023-03-05T13:42:43.467Z,1.85
2023-03-05T13:45:31.622Z,1.98
2023-03-05T13:48:05.746Z,1.85
2023-03-05T13:50:38.195Z,1.83
2023-03-05T13:53:31.781Z,1.95
2023-03-05T13:56:13.783Z,1.92
2023-03-05T13:58:57.196Z,2.00
2023-03-05T14:01:36.932Z,1.97
2023-03-05T14:04:13.819Z,1.90
2023-03-05T14:07:07.635Z,2.09
2023-03-05T14:09:41.080Z,1.94
2023-03-05T14:12:38.514Z,1.88
2023-03-05T14:15:47.560Z,1.79
2023-03-05T14:18:19.593Z,1.67
2023-03-05T14:21:08.866Z,1.74
2023-03-05T14:23:53.005Z,1.50
2023-03-05T14:26:32.606Z,1.54
2023-03-05T14:29:05.228Z,1.62
2023-03-05T14:31:57.801Z,1.62
2023-03-05T14:34:27.840Z,1.51
2023-03-05T14:37:03.387Z,1.50
2023-03-05T14:39:59.947Z,1.60
2023-03-05T14:42:50.823Z,1.64
2023-03-05T14:45:40.873Z,1.49
2023-03-05T14:48:10.638Z,1.51
2023-03-05T14:50:42.483Z,1.48
2023-03-05T14:53:48.376Z,1.45
2023-03-05T14:56:28.172Z,1.47
2023-03-05T14:58:59.737Z,1.31
2023-03-05T15:01:27.935Z,1.15
2023-03-05T15:03:55.674Z,1.13
2023-03-05T15:06:45.396Z,1.33
2023-03-05T15:09:17.670Z,1.28
2023-03-05T15:11:45.992Z,1.31
2023-03-05T15:14:13.677Z,1.23
2023-03-05T15:16:45.427Z,1.18
2023-03-05T15:19:13.899Z,1.04
2023-03-05T15:21:42.240Z,0.64
2023-03-05T15:24:11.352Z,0.54
2023-03-05T15:26:39.860Z,0.56
2023-03-05T15:29:07.582Z,0.39
2023-03-05T15:31:38.761Z,0.24
2023-03-05T15:34:07.288Z,0.34
2023-03-05T15:36:35.193Z,0.41
2023-03-05T15:39:03.093Z,0.18
2023-03-05T15:41:31.139Z,0.21
2023-03-05T15:43:58.885Z,0.18
2023-03-05T15:46:26.911Z,0.17
2023-03-05T15:48:54.806Z,0.04
2023-03-05T15:51:22.870Z,0.12
2023-03-05T15:53:50.692Z,0.13
2023-03-05T15:56:19.539Z,0.21
2023-03-05T15:58:53.247Z,0.14
2023-03-05T16:01:23.350Z,0.07
2023-03-05T16:03:51.642Z,-0.11
2023-03-05T16:06:24.028Z,-0.25
2023-03-05T16:08:56.903Z,-0.42
2023-03-05T16:11:25.856Z,-0.57
2023-03-05T16:13:53.770Z,-0.62
2023-03-05T16:16:23.684Z,-0.69
2023-03-05T16:18:51.555Z,-0.81
2023-03-05T16:21:19.734Z,-0.77
2023-03-05T16:23:49.419Z,-0.67
2023-03-05T16:26:17.595Z,-0.84
2023-03-05T16:28:45.575Z,-0.90
2023-03-05T16:31:13.631Z,-0.97
2023-03-05T16:33:41.324Z,-1.12
2023-03-05T16:36:20.756Z,-1.13
2023-03-05T16:38:50.934Z,-1.17
2023-03-05T16:41:21.954Z,-1.16
2023-03-05T16:43:54.154Z,-1.16
2023-03-05T16:46:23.018Z,-1.20
2023-03-05T16:48:52.289Z,-1.05
2023-03-05T16:51:21.280Z,-1.13
2023-03-05T16:53:49.284Z,-1.08
2023-03-05T16:56:17.670Z,-1.10
2023-03-05T16:58:45.362Z,-1.23
2023-03-05T17:01:18.129Z,-1.13
2023-03-05T17:03:47.002Z,-1.13
2023-03-05T17:06:24.130Z,-1.12
2023-03-05T17:08:52.880Z,-1.17
2023-03-05T17:11:21.562Z,-1.17
2023-03-05T17:13:49.370Z,-1.23
2023-03-05T17:16:33.850Z,-1.13
2023-03-05T17:19:01.687Z,-1.22
2023-03-05T17:21:29.629Z,-1.21
2023-03-05T17:23:57.521Z,-1.25
2023-03-05T17:26:25.959Z,-1.26
2023-03-05T17:28:54.596Z,-1.40
2023-03-05T17:31:22.717Z,-1.52
2023-03-05T17:33:50.938Z,-1.70
2023-03-05T17:36:20.829Z,-1.79
2023-03-05T17:38:50.315Z,-1.88
2023-03-05T17:41:19.830Z,-1.98
2023-03-05T17:43:48.005Z,-2.04
2023-03-05T17:46:16.887Z,-2.15
2023-03-05T17:48:45.055Z,-2.25
2023-03-05T17:51:16.411Z,-2.29
2023-03-05T17:53:44.390Z,-2.47
2023-03-05T17:56:14.248Z,-2.52
2023-03-05T17:58:42.134Z,-2.67
2023-03-05T18:01:10.656Z,-2.68
2023-03-05T18:03:39.354Z,-2.84
2023-03-05T18:06:07.662Z,-2.75
2023-03-05T18:08:36.068Z,-2.88
2023-03-05T18:11:04.161Z,-2.97
2023-03-05T18:13:32.226Z,-3.08
2023-03-05T18:16:01.091Z,-3.16
2023-03-05T18:18:28.995Z,-3.15
2023-03-05T18:20:57.213Z,-3.25
2023-03-05T18:23:24.990Z,-3.13
2023-03-05T18:25:53.160Z,-3.22
2023-03-05T18:28:21.055Z,-3.29
2023-03-05T18:30:49.361Z,-3.36
2023-03-05T18:33:25.184Z,-3.40
2023-03-05T18:35:53.769Z,-3.44
2023-03-05T18:38:23.669Z,-3.38
2023-03-05T18:40:53.417Z,-3.50
2023-03-05T18:43:22.559Z,-3.56
2023-03-05T18:45:55.855Z,-3.46
2023-03-05T18:48:23.858Z,-3.52
2023-03-05T18:50:53.907Z,-3.57
2023-03-05T18:53:22.570Z,-3.63
2023-03-05T18:55:51.944Z,-3.59
2023-03-05T18:58:20.069Z,-3.57
2023-03-05T19:00:48.899Z,-3.66
2023-03-05T19:03:19.337Z,-3.66
2023-03-05T19:05:50.257Z,-3.69
2023-03-05T19:08:18.337Z,-3.74
2023-03-05T19:10:47.014Z,-3.69
2023-03-05T19:13:36.300Z,-3.72
2023-03-05T19:16:36.841Z,-3.64
2023-03-05T19:19:14.361Z,-3.62
2023-03-05T19:21:43.954Z,-3.69
2023-03-05T19:24:12.316Z,-3.61
2023-03-05T19:26:40.811Z,-3.56
2023-03-05T19:29:09.473Z,-3.60
2023-03-05T19:31:38.134Z,-3.56
2023-03-05T19:34:05.979Z,-3.63
2023-03-05T19:36:35.582Z,-3.75
2023-03-05T19:39:05.727Z,-3.70
2023-03-05T19:41:34.412Z,-3.72
2023-03-05T19:44:02.781Z,-3.73
2023-03-05T19:46:31.696Z,-3.83
2023-03-05T19:48:59.637Z,-3.86
2023-03-05T19:51:28.492Z,-3.84
2023-03-05T19:53:56.321Z,-3.89
2023-03-05T19:56:24.335Z,-3.91
2023-03-05T19:58:52.096Z,-3.90
2023-03-05T20:01:23.092Z,-3.82
2023-03-05T20:03:54.430Z,-3.86
2023-03-05T20:06:23.248Z,-3.87
2023-03-05T20:08:51.301Z,-3.95
2023-03-05T20:11:21.566Z,-3.99
2023-03-05T20:13:50.334Z,-3.94
2023-03-05T20:16:26.740Z,-3.84
2023-03-05T20:18:55.905Z,-3.89
2023-03-05T20:21:27.684Z,-3.90
2023-03-05T20:23:58.017Z,-3.94
2023-03-05T20:26:27.113Z,-3.90
2023-03-05T20:28:56.541Z,-3.89
2023-03-05T20:31:26.462Z,-3.77
2023-03-05T20:33:56.282Z,-3.78
2023-03-05T20:36:24.633Z,-3.72
2023-03-05T20:38:52.459Z,-3.77
2023-03-05T20:41:20.904Z,-3.69
2023-03-05T20:43:50.791Z,-3.71
2023-03-05T20:46:22.265Z,-3.73
2023-03-05T20:48:52.087Z,-3.79
2023-03-05T20:51:24.567Z,-3.77
2023-03-05T20:53:57.942Z,-3.84
2023-03-05T20:56:28.011Z,-3.94
2023-03-05T20:58:58.242Z,-3.96
2023-03-05T21:01:27.418Z,-3.99
2023-03-05T21:03:57.227Z,-4.07
2023-03-05T21:06:27.200Z,-4.08
2023-03-05T21:08:55.135Z,-4.17
2023-03-05T21:11:23.196Z,-4.17
2023-03-05T21:13:51.053Z,-4.17
2023-03-05T21:16:26.012Z,-4.25
2023-03-05T21:18:55.943Z,-4.30
2023-03-05T21:21:24.514Z,-4.21
2023-03-05T21:23:53.306Z,-4.18
2023-03-05T21:26:21.681Z,-4.11
2023-03-05T21:28:49.451Z,-4.11
2023-03-05T21:31:20.661Z,-4.10
2023-03-05T21:33:49.431Z,-3.96
2023-03-05T21:36:18.850Z,-4.07
2023-03-05T21:38:47.904Z,-4.09
2023-03-05T21:41:18.191Z,-4.16
2023-03-05T21:43:46.276Z,-4.09
2023-03-05T21:46:15.059Z,-4.20
2023-03-05T21:48:43.093Z,-4.24
2023-03-05T21:51:13.687Z,-4.27
2023-03-05T21:53:41.899Z,-4.43
2023-03-05T21:56:19.185Z,-4.52
2023-03-05T21:58:47.965Z,-4.48
2023-03-05T22:01:18.561Z,-4.40
2023-03-05T22:03:47.636Z,-4.51
2023-03-05T22:06:17.761Z,-4.57
2023-03-05T22:08:46.140Z,-4.63
2023-03-05T22:11:17.234Z,-4.59
2023-03-05T22:13:45.458Z,-4.65
2023-03-05T22:16:25.645Z,-4.57
2023-03-05T22:18:53.838Z,-4.47
2023-03-05T22:21:26.944Z,-4.56
2023-03-05T22:23:57.191Z,-4.47
2023-03-05T22:26:26.412Z,-4.51
2023-03-05T22:28:54.496Z,-4.47
2023-03-05T22:31:24.637Z,-4.43
2023-03-05T22:33:53.132Z,-4.50
2023-03-05T22:36:20.934Z,-4.50
2023-03-05T22:38:48.916Z,-4.44
2023-03-05T22:41:19.866Z,-4.39
2023-03-05T22:43:48.952Z,-4.22
2023-03-05T22:46:23.229Z,-4.14
2023-03-05T22:48:52.269Z,-4.06
2023-03-05T22:51:20.337Z,-4.06
2023-03-05T22:53:48.258Z,-4.00
2023-03-05T22:56:18.874Z,-3.97
2023-03-05T22:58:47.601Z,-3.92
2023-03-05T23:01:18.409Z,-3.76
2023-03-05T23:03:47.362Z,-3.95
2023-03-05T23:06:15.119Z,-3.89
2023-03-05T23:08:43.077Z,-3.94
2023-03-05T23:11:12.989Z,-3.92
2023-03-05T23:13:41.752Z,-3.98
2023-03-05T23:16:09.831Z,-3.95
2023-03-05T23:18:38.093Z,-3.96
2023-03-05T23:21:06.082Z,-4.14
2023-03-05T23:23:34.111Z,-4.28
2023-03-05T23:26:01.906Z,-4.31
2023-03-05T23:28:29.910Z,-4.23
2023-03-05T23:30:58.699Z,-4.33
2023-03-05T23:33:26.596Z,-4.46
2023-03-05T23:35:59.505Z,-4.43
2023-03-05T23:38:29.634Z,-4.55
2023-03-05T23:41:01.262Z,-4.58
2023-03-05T23:43:30.051Z,-4.49
2023-03-05T23:45:57.966Z,-4.50
2023-03-05T23:48:27.827Z,-4.56
2023-03-05T23:50:55.850Z,-4.64
2023-03-05T23:53:32.943Z,-4.59
2023-03-05T23:56:00.664Z,-4.75
2023-03-05T23:58:28.611Z,-4.86
